sensor_id;sensor_type;location;lat;lon;timestamp;P1;durP1;ratioP1;P2;durP2;ratioP2
69301;SDS011;56689;47.842;8.974;2024-03-17T00:00:19;3.72;;;1.77;;
69301;SDS011;56689;47.842;8.974;2024-03-17T00:02:47;5.05;;;1.60;;
69301;SDS011;56689;47.842;8.974;2024-03-17T00:05:13;9.02;;;1.75;;
69301;SDS011;56689;47.842;8.974;2024-03-17T00:07:43;4.68;;;1.58;;
69301;SDS011;56689;47.842;8.974;2024-03-17T00:10:09;5.20;;;1.88;;
69301;SDS011;56689;47.842;8.974;2024-03-17T00:12:37;5.10;;;2.30;;
69301;SDS011;56689;47.842;8.974;2024-03-17T00:15:04;6.00;;;2.58;;
69301;SDS011;56689;47.842;8.974;2024-03-17T00:17:33;5.95;;;2.03;;
69301;SDS011;56689;47.842;8.974;2024-03-17T00:20:00;4.57;;;2.00;;
69301;SDS011;56689;47.842;8.974;2024-03-17T00:22:33;4.95;;;2.40;;
69301;SDS011;56689;47.842;8.974;2024-03-17T00:25:02;4.68;;;2.20;;
69301;SDS011;56689;47.842;8.974;2024-03-17T00:27:34;5.45;;;2.10;;
69301;SDS011;56689;47.842;8.974;2024-03-17T00:30:04;6.33;;;2.13;;
69301;SDS011;56689;47.842;8.974;2024-03-17T00:32:37;3.55;;;1.73;;
69301;SDS011;56689;47.842;8.974;2024-03-17T00:35:14;4.38;;;2.10;;
69301;SDS011;56689;47.842;8.974;2024-03-17T00:37:46;5.22;;;1.90;;
69301;SDS011;56689;47.842;8.974;2024-03-17T00:40:21;4.03;;;1.90;;
69301;SDS011;56689;47.842;8.974;2024-03-17T00:42:46;6.75;;;2.45;;
69301;SDS011;56689;47.842;8.974;2024-03-17T00:45:20;6.10;;;2.20;;
69301;SDS011;56689;47.842;8.974;2024-03-17T00:47:54;4.07;;;1.80;;
69301;SDS011;56689;47.842;8.974;2024-03-17T00:50:28;5.63;;;2.00;;
69301;SDS011;56689;47.842;8.974;2024-03-17T00:52:56;4.77;;;2.30;;
69301;SDS011;56689;47.842;8.974;2024-03-17T00:55:25;4.00;;;2.00;;
69301;SDS011;56689;47.842;8.974;2024-03-17T00:58:05;4.30;;;2.17;;
69301;SDS011;56689;47.842;8.974;2024-03-17T01:00:34;4.25;;;1.85;;
69301;SDS011;56689;47.842;8.974;2024-03-17T01:03:00;4.28;;;1.70;;
69301;SDS011;56689;47.842;8.974;2024-03-17T01:05:29;4.63;;;1.90;;
69301;SDS011;56689;47.842;8.974;2024-03-17T01:07:57;4.50;;;2.00;;
69301;SDS011;56689;47.842;8.974;2024-03-17T01:10:25;6.47;;;2.33;;
69301;SDS011;56689;47.842;8.974;2024-03-17T01:13:02;4.57;;;2.22;;
69301;SDS011;56689;47.842;8.974;2024-03-17T01:15:29;9.15;;;2.50;;
69301;SDS011;56689;47.842;8.974;2024-03-17T01:18:02;4.75;;;2.05;;
69301;SDS011;56689;47.842;8.974;2024-03-17T01:20:45;4.68;;;2.60;;
69301;SDS011;56689;47.842;8.974;2024-03-17T01:23:19;4.63;;;2.40;;
69301;SDS011;56689;47.842;8.974;2024-03-17T01:26:09;5.47;;;2.45;;
69301;SDS011;56689;47.842;8.974;2024-03-17T01:28:35;4.15;;;1.90;;
69301;SDS011;56689;47.842;8.974;2024-03-17T01:33:42;4.10;;;1.95;;
69301;SDS011;56689;47.842;8.974;2024-03-17T01:36:19;4.93;;;2.17;;
69301;SDS011;56689;47.842;8.974;2024-03-17T01:38:45;4.07;;;1.95;;
69301;SDS011;56689;47.842;8.974;2024-03-17T01:41:13;4.22;;;2.22;;
69301;SDS011;56689;47.842;8.974;2024-03-17T01:43:39;4.35;;;2.50;;
69301;SDS011;56689;47.842;8.974;2024-03-17T01:46:10;5.80;;;2.43;;
69301;SDS011;56689;47.842;8.974;2024-03-17T01:48:38;6.28;;;2.60;;
69301;SDS011;56689;47.842;8.974;2024-03-17T01:51:07;5.28;;;2.65;;
69301;SDS011;56689;47.842;8.974;2024-03-17T01:53:41;5.03;;;2.35;;
69301;SDS011;56689;47.842;8.974;2024-03-17T01:56:07;5.72;;;2.20;;
69301;SDS011;56689;47.842;8.974;2024-03-17T01:58:36;5.27;;;2.33;;
69301;SDS011;56689;47.842;8.974;2024-03-17T02:01:11;5.55;;;2.40;;
69301;SDS011;56689;47.842;8.974;2024-03-17T02:03:48;9.07;;;2.60;;
69301;SDS011;56689;47.842;8.974;2024-03-17T02:06:14;5.85;;;2.35;;
69301;SDS011;56689;47.842;8.974;2024-03-17T02:08:46;9.73;;;2.80;;
69301;SDS011;56689;47.842;8.974;2024-03-17T02:11:26;6.72;;;2.40;;
69301;SDS011;56689;47.842;8.974;2024-03-17T02:13:56;4.55;;;2.40;;
69301;SDS011;56689;47.842;8.974;2024-03-17T02:16:23;7.65;;;2.42;;
69301;SDS011;56689;47.842;8.974;2024-03-17T02:18:55;6.45;;;2.47;;
69301;SDS011;56689;47.842;8.974;2024-03-17T02:21:27;8.32;;;2.88;;
69301;SDS011;56689;47.842;8.974;2024-03-17T02:23:56;6.20;;;2.20;;
69301;SDS011;56689;47.842;8.974;2024-03-17T02:26:25;6.05;;;2.28;;
69301;SDS011;56689;47.842;8.974;2024-03-17T02:28:51;4.25;;;1.92;;
69301;SDS011;56689;47.842;8.974;2024-03-17T02:31:19;6.47;;;2.37;;
69301;SDS011;56689;47.842;8.974;2024-03-17T02:33:47;4.72;;;2.50;;
69301;SDS011;56689;47.842;8.974;2024-03-17T02:36:13;5.80;;;2.25;;
69301;SDS011;56689;47.842;8.974;2024-03-17T02:38:51;4.22;;;2.00;;
69301;SDS011;56689;47.842;8.974;2024-03-17T02:41:42;6.50;;;2.10;;
69301;SDS011;56689;47.842;8.974;2024-03-17T02:44:08;6.10;;;1.95;;
69301;SDS011;56689;47.842;8.974;2024-03-17T02:46:36;6.45;;;2.47;;
69301;SDS011;56689;47.842;8.974;2024-03-17T02:49:11;7.22;;;2.13;;
69301;SDS011;56689;47.842;8.974;2024-03-17T02:51:39;5.22;;;2.35;;
69301;SDS011;56689;47.842;8.974;2024-03-17T02:54:06;4.13;;;2.07;;
69301;SDS011;56689;47.842;8.974;2024-03-17T02:56:39;5.60;;;2.20;;
69301;SDS011;56689;47.842;8.974;2024-03-17T02:59:19;5.75;;;2.13;;
69301;SDS011;56689;47.842;8.974;2024-03-17T03:01:47;4.13;;;1.93;;
69301;SDS011;56689;47.842;8.974;2024-03-17T03:04:13;4.78;;;1.83;;
69301;SDS011;56689;47.842;8.974;2024-03-17T03:06:38;5.73;;;1.63;;
69301;SDS011;56689;47.842;8.974;2024-03-17T03:09:11;7.15;;;2.10;;
69301;SDS011;56689;47.842;8.974;2024-03-17T03:11:45;8.27;;;2.00;;
69301;SDS011;56689;47.842;8.974;2024-03-17T03:14:11;6.65;;;2.63;;
69301;SDS011;56689;47.842;8.974;2024-03-17T03:16:37;9.70;;;2.70;;
69301;SDS011;56689;47.842;8.974;2024-03-17T03:19:03;7.75;;;2.67;;
69301;SDS011;56689;47.842;8.974;2024-03-17T03:21:32;6.43;;;2.45;;
69301;SDS011;56689;47.842;8.974;2024-03-17T03:24:00;7.13;;;2.47;;
69301;SDS011;56689;47.842;8.974;2024-03-17T03:26:26;5.63;;;2.65;;
69301;SDS011;56689;47.842;8.974;2024-03-17T03:28:53;9.55;;;3.03;;
69301;SDS011;56689;47.842;8.974;2024-03-17T03:31:22;8.13;;;3.88;;
69301;SDS011;56689;47.842;8.974;2024-03-17T03:33:54;5.95;;;2.42;;
69301;SDS011;56689;47.842;8.974;2024-03-17T03:36:22;6.32;;;2.63;;
69301;SDS011;56689;47.842;8.974;2024-03-17T03:38:56;5.50;;;2.20;;
69301;SDS011;56689;47.842;8.974;2024-03-17T03:41:32;5.22;;;2.30;;
69301;SDS011;56689;47.842;8.974;2024-03-17T03:44:03;5.57;;;2.25;;
69301;SDS011;56689;47.842;8.974;2024-03-17T03:46:35;5.32;;;2.55;;
69301;SDS011;56689;47.842;8.974;2024-03-17T03:49:06;4.80;;;2.45;;
69301;SDS011;56689;47.842;8.974;2024-03-17T03:51:34;6.43;;;2.92;;
69301;SDS011;56689;47.842;8.974;2024-03-17T03:54:00;5.97;;;2.43;;
69301;SDS011;56689;47.842;8.974;2024-03-17T03:56:36;9.38;;;2.58;;
69301;SDS011;56689;47.842;8.974;2024-03-17T04:02:16;5.18;;;2.10;;
69301;SDS011;56689;47.842;8.974;2024-03-17T04:04:42;4.30;;;2.20;;
69301;SDS011;56689;47.842;8.974;2024-03-17T04:07:10;4.90;;;2.28;;
69301;SDS011;56689;47.842;8.974;2024-03-17T04:09:49;5.03;;;2.30;;
69301;SDS011;56689;47.842;8.974;2024-03-17T04:12:18;9.10;;;2.37;;
69301;SDS011;56689;47.842;8.974;2024-03-17T04:14:46;9.05;;;2.88;;
69301;SDS011;56689;47.842;8.974;2024-03-17T04:17:24;4.90;;;2.35;;
69301;SDS011;56689;47.842;8.974;2024-03-17T04:19:51;6.53;;;2.45;;
69301;SDS011;56689;47.842;8.974;2024-03-17T04:22:17;4.82;;;2.40;;
69301;SDS011;56689;47.842;8.974;2024-03-17T04:24:44;4.80;;;2.60;;
69301;SDS011;56689;47.842;8.974;2024-03-17T04:27:10;4.63;;;2.20;;
69301;SDS011;56689;47.842;8.974;2024-03-17T04:29:50;6.10;;;2.50;;
69301;SDS011;56689;47.842;8.974;2024-03-17T04:32:22;4.20;;;2.03;;
69301;SDS011;56689;47.842;8.974;2024-03-17T04:34:49;6.25;;;2.60;;
69301;SDS011;56689;47.842;8.974;2024-03-17T04:37:22;4.38;;;2.17;;
69301;SDS011;56689;47.842;8.974;2024-03-17T04:39:50;6.57;;;2.40;;
69301;SDS011;56689;47.842;8.974;2024-03-17T04:42:22;7.18;;;2.10;;
69301;SDS011;56689;47.842;8.974;2024-03-17T04:44:57;5.20;;;2.35;;
69301;SDS011;56689;47.842;8.974;2024-03-17T04:47:37;5.32;;;2.30;;
69301;SDS011;56689;47.842;8.974;2024-03-17T04:50:03;5.00;;;2.53;;
69301;SDS011;56689;47.842;8.974;2024-03-17T04:52:29;5.27;;;2.27;;
69301;SDS011;56689;47.842;8.974;2024-03-17T04:54:57;5.35;;;2.38;;
69301;SDS011;56689;47.842;8.974;2024-03-17T04:57:23;4.70;;;1.90;;
69301;SDS011;56689;47.842;8.974;2024-03-17T04:59:51;4.80;;;2.17;;
69301;SDS011;56689;47.842;8.974;2024-03-17T05:02:19;4.28;;;2.05;;
69301;SDS011;56689;47.842;8.974;2024-03-17T05:04:44;5.03;;;2.33;;
69301;SDS011;56689;47.842;8.974;2024-03-17T05:07:10;4.68;;;2.40;;
69301;SDS011;56689;47.842;8.974;2024-03-17T05:09:35;5.00;;;2.23;;
69301;SDS011;56689;47.842;8.974;2024-03-17T05:12:01;4.43;;;2.00;;
69301;SDS011;56689;47.842;8.974;2024-03-17T05:14:38;4.53;;;2.30;;
69301;SDS011;56689;47.842;8.974;2024-03-17T05:17:04;4.10;;;2.28;;
69301;SDS011;56689;47.842;8.974;2024-03-17T05:19:32;4.28;;;2.08;;
69301;SDS011;56689;47.842;8.974;2024-03-17T05:21:58;3.85;;;2.15;;
69301;SDS011;56689;47.842;8.974;2024-03-17T05:24:26;5.28;;;1.88;;
69301;SDS011;56689;47.842;8.974;2024-03-17T05:26:59;5.88;;;2.13;;
69301;SDS011;56689;47.842;8.974;2024-03-17T05:29:25;5.55;;;1.77;;
69301;SDS011;56689;47.842;8.974;2024-03-17T05:31:53;4.35;;;2.15;;
69301;SDS011;56689;47.842;8.974;2024-03-17T05:34:24;5.35;;;2.20;;
69301;SDS011;56689;47.842;8.974;2024-03-17T05:36:53;3.63;;;1.60;;
69301;SDS011;56689;47.842;8.974;2024-03-17T05:39:22;3.78;;;1.70;;
69301;SDS011;56689;47.842;8.974;2024-03-17T05:42:16;3.88;;;1.67;;
69301;SDS011;56689;47.842;8.974;2024-03-17T05:44:44;4.70;;;2.25;;
69301;SDS011;56689;47.842;8.974;2024-03-17T05:47:25;4.97;;;2.35;;
69301;SDS011;56689;47.842;8.974;2024-03-17T05:49:51;4.50;;;1.85;;
69301;SDS011;56689;47.842;8.974;2024-03-17T05:52:16;9.53;;;2.27;;
69301;SDS011;56689;47.842;8.974;2024-03-17T05:54:45;4.22;;;1.95;;
69301;SDS011;56689;47.842;8.974;2024-03-17T05:57:13;3.83;;;2.00;;
69301;SDS011;56689;47.842;8.974;2024-03-17T05:59:43;5.03;;;2.13;;
69301;SDS011;56689;47.842;8.974;2024-03-17T06:02:14;4.13;;;2.40;;
69301;SDS011;56689;47.842;8.974;2024-03-17T06:04:51;3.78;;;1.73;;
69301;SDS011;56689;47.842;8.974;2024-03-17T06:07:17;4.63;;;1.73;;
69301;SDS011;56689;47.842;8.974;2024-03-17T06:09:48;4.18;;;1.60;;
69301;SDS011;56689;47.842;8.974;2024-03-17T06:12:14;3.92;;;2.00;;
69301;SDS011;56689;47.842;8.974;2024-03-17T06:14:40;5.63;;;1.80;;
69301;SDS011;56689;47.842;8.974;2024-03-17T06:17:18;6.00;;;2.10;;
69301;SDS011;56689;47.842;8.974;2024-03-17T06:19:44;3.92;;;2.10;;
69301;SDS011;56689;47.842;8.974;2024-03-17T06:22:15;3.65;;;2.00;;
69301;SDS011;56689;47.842;8.974;2024-03-17T06:24:44;4.85;;;2.20;;
69301;SDS011;56689;47.842;8.974;2024-03-17T06:27:18;4.73;;;1.87;;
69301;SDS011;56689;47.842;8.974;2024-03-17T06:29:54;3.72;;;1.80;;
69301;SDS011;56689;47.842;8.974;2024-03-17T06:32:32;4.25;;;2.08;;
69301;SDS011;56689;47.842;8.974;2024-03-17T06:35:04;5.10;;;2.08;;
69301;SDS011;56689;47.842;8.974;2024-03-17T06:37:29;5.47;;;2.10;;
69301;SDS011;56689;47.842;8.974;2024-03-17T06:40:03;4.03;;;2.00;;
69301;SDS011;56689;47.842;8.974;2024-03-17T06:42:32;5.25;;;2.20;;
69301;SDS011;56689;47.842;8.974;2024-03-17T06:44:58;4.65;;;2.63;;
69301;SDS011;56689;47.842;8.974;2024-03-17T06:47:24;8.23;;;3.17;;
69301;SDS011;56689;47.842;8.974;2024-03-17T06:49:50;7.73;;;2.20;;
69301;SDS011;56689;47.842;8.974;2024-03-17T06:52:27;4.32;;;2.40;;
69301;SDS011;56689;47.842;8.974;2024-03-17T06:55:08;7.00;;;2.60;;
69301;SDS011;56689;47.842;8.974;2024-03-17T06:57:37;3.92;;;2.28;;
69301;SDS011;56689;47.842;8.974;2024-03-17T07:00:06;5.10;;;2.75;;
69301;SDS011;56689;47.842;8.974;2024-03-17T07:02:41;4.95;;;2.50;;
69301;SDS011;56689;47.842;8.974;2024-03-17T07:05:11;5.55;;;2.67;;
69301;SDS011;56689;47.842;8.974;2024-03-17T07:07:39;4.20;;;2.22;;
69301;SDS011;56689;47.842;8.974;2024-03-17T07:10:08;5.07;;;1.90;;
69301;SDS011;56689;47.842;8.974;2024-03-17T07:12:36;5.07;;;2.33;;
69301;SDS011;56689;47.842;8.974;2024-03-17T07:15:17;3.70;;;2.05;;
69301;SDS011;56689;47.842;8.974;2024-03-17T07:17:49;5.28;;;2.55;;
69301;SDS011;56689;47.842;8.974;2024-03-17T07:20:15;5.97;;;3.78;;
69301;SDS011;56689;47.842;8.974;2024-03-17T07:22:41;10.57;;;4.80;;
69301;SDS011;56689;47.842;8.974;2024-03-17T07:25:09;11.05;;;4.05;;
69301;SDS011;56689;47.842;8.974;2024-03-17T07:27:43;11.27;;;3.87;;
69301;SDS011;56689;47.842;8.974;2024-03-17T07:30:16;9.65;;;3.67;;
69301;SDS011;56689;47.842;8.974;2024-03-17T07:32:48;7.65;;;3.42;;
69301;SDS011;56689;47.842;8.974;2024-03-17T07:35:19;7.20;;;3.13;;
69301;SDS011;56689;47.842;8.974;2024-03-17T07:37:47;6.65;;;2.95;;
69301;SDS011;56689;47.842;8.974;2024-03-17T07:40:12;9.17;;;4.07;;
69301;SDS011;56689;47.842;8.974;2024-03-17T07:42:40;8.50;;;3.55;;
69301;SDS011;56689;47.842;8.974;2024-03-17T07:45:10;7.97;;;3.13;;
69301;SDS011;56689;47.842;8.974;2024-03-17T07:47:38;8.40;;;3.27;;
69301;SDS011;56689;47.842;8.974;2024-03-17T07:52:55;7.20;;;3.03;;
69301;SDS011;56689;47.842;8.974;2024-03-17T07:55:24;7.07;;;3.90;;
69301;SDS011;56689;47.842;8.974;2024-03-17T07:57:53;10.45;;;3.97;;
69301;SDS011;56689;47.842;8.974;2024-03-17T08:00:18;10.00;;;4.88;;
69301;SDS011;56689;47.842;8.974;2024-03-17T08:02:45;9.85;;;4.93;;
69301;SDS011;56689;47.842;8.974;2024-03-17T08:05:19;12.43;;;5.50;;
69301;SDS011;56689;47.842;8.974;2024-03-17T08:07:50;10.02;;;4.90;;
69301;SDS011;56689;47.842;8.974;2024-03-17T08:10:21;10.50;;;5.07;;
69301;SDS011;56689;47.842;8.974;2024-03-17T08:12:47;9.13;;;4.43;;
69301;SDS011;56689;47.842;8.974;2024-03-17T08:15:18;10.00;;;4.32;;
69301;SDS011;56689;47.842;8.974;2024-03-17T08:17:47;9.23;;;4.90;;
69301;SDS011;56689;47.842;8.974;2024-03-17T08:20:15;9.48;;;4.40;;
69301;SDS011;56689;47.842;8.974;2024-03-17T08:22:44;9.73;;;4.30;;
69301;SDS011;56689;47.842;8.974;2024-03-17T08:25:15;9.00;;;3.93;;
69301;SDS011;56689;47.842;8.974;2024-03-17T08:27:47;6.60;;;4.22;;
69301;SDS011;56689;47.842;8.974;2024-03-17T08:30:31;7.05;;;4.28;;
69301;SDS011;56689;47.842;8.974;2024-03-17T08:33:00;8.50;;;4.13;;
69301;SDS011;56689;47.842;8.974;2024-03-17T08:35:41;6.93;;;4.18;;
69301;SDS011;56689;47.842;8.974;2024-03-17T08:38:07;9.40;;;4.80;;
69301;SDS011;56689;47.842;8.974;2024-03-17T08:40:36;8.60;;;4.57;;
69301;SDS011;56689;47.842;8.974;2024-03-17T08:43:12;8.68;;;5.00;;
69301;SDS011;56689;47.842;8.974;2024-03-17T08:45:41;8.23;;;5.00;;
69301;SDS011;56689;47.842;8.974;2024-03-17T08:48:08;8.82;;;4.60;;
69301;SDS011;56689;47.842;8.974;2024-03-17T08:50:35;7.57;;;4.85;;
69301;SDS011;56689;47.842;8.974;2024-03-17T08:53:06;6.78;;;4.78;;
69301;SDS011;56689;47.842;8.974;2024-03-17T08:55:32;7.47;;;4.60;;
69301;SDS011;56689;47.842;8.974;2024-03-17T08:58:00;7.75;;;4.90;;
69301;SDS011;56689;47.842;8.974;2024-03-17T09:00:27;9.05;;;4.95;;
69301;SDS011;56689;47.842;8.974;2024-03-17T09:02:52;8.15;;;4.53;;
69301;SDS011;56689;47.842;8.974;2024-03-17T09:05:18;7.77;;;4.60;;
69301;SDS011;56689;47.842;8.974;2024-03-17T09:07:46;7.20;;;4.53;;
69301;SDS011;56689;47.842;8.974;2024-03-17T09:10:11;7.97;;;4.80;;
69301;SDS011;56689;47.842;8.974;2024-03-17T09:12:45;8.35;;;5.00;;
69301;SDS011;56689;47.842;8.974;2024-03-17T09:15:59;8.32;;;4.82;;
69301;SDS011;56689;47.842;8.974;2024-03-17T09:18:52;7.20;;;4.72;;
69301;SDS011;56689;47.842;8.974;2024-03-17T09:21:23;7.65;;;5.10;;
69301;SDS011;56689;47.842;8.974;2024-03-17T09:23:54;9.48;;;5.40;;
69301;SDS011;56689;47.842;8.974;2024-03-17T09:26:25;9.02;;;4.55;;
69301;SDS011;56689;47.842;8.974;2024-03-17T09:28:50;7.78;;;4.60;;
69301;SDS011;56689;47.842;8.974;2024-03-17T09:31:16;8.27;;;4.27;;
69301;SDS011;56689;47.842;8.974;2024-03-17T09:33:41;8.23;;;4.50;;
69301;SDS011;56689;47.842;8.974;2024-03-17T09:36:16;7.50;;;4.22;;
69301;SDS011;56689;47.842;8.974;2024-03-17T09:38:45;7.00;;;4.18;;
69301;SDS011;56689;47.842;8.974;2024-03-17T09:41:21;7.68;;;4.60;;
69301;SDS011;56689;47.842;8.974;2024-03-17T09:43:50;6.03;;;3.67;;
69301;SDS011;56689;47.842;8.974;2024-03-17T09:46:29;7.72;;;4.25;;
69301;SDS011;56689;47.842;8.974;2024-03-17T09:48:57;7.65;;;3.88;;
69301;SDS011;56689;47.842;8.974;2024-03-17T09:51:23;8.40;;;3.80;;
69301;SDS011;56689;47.842;8.974;2024-03-17T09:53:50;6.95;;;3.55;;
69301;SDS011;56689;47.842;8.974;2024-03-17T09:56:17;8.30;;;3.75;;
69301;SDS011;56689;47.842;8.974;2024-03-17T09:58:44;6.97;;;3.40;;
69301;SDS011;56689;47.842;8.974;2024-03-17T10:01:15;6.28;;;3.55;;
69301;SDS011;56689;47.842;8.974;2024-03-17T10:03:48;5.10;;;2.17;;
69301;SDS011;56689;47.842;8.974;2024-03-17T10:06:19;6.93;;;2.95;;
69301;SDS011;56689;47.842;8.974;2024-03-17T10:08:53;6.00;;;3.00;;
69301;SDS011;56689;47.842;8.974;2024-03-17T10:11:27;5.82;;;2.58;;
69301;SDS011;56689;47.842;8.974;2024-03-17T10:14:06;6.47;;;3.05;;
69301;SDS011;56689;47.842;8.974;2024-03-17T10:16:36;5.93;;;3.03;;
69301;SDS011;56689;47.842;8.974;2024-03-17T10:19:12;7.40;;;3.33;;
69301;SDS011;56689;47.842;8.974;2024-03-17T10:21:45;10.45;;;4.88;;
69301;SDS011;56689;47.842;8.974;2024-03-17T10:24:20;24.38;;;14.68;;
69301;SDS011;56689;47.842;8.974;2024-03-17T10:26:50;6.82;;;3.35;;
69301;SDS011;56689;47.842;8.974;2024-03-17T10:29:19;5.17;;;2.00;;
69301;SDS011;56689;47.842;8.974;2024-03-17T10:31:59;6.40;;;2.25;;
69301;SDS011;56689;47.842;8.974;2024-03-17T10:34:32;6.35;;;2.53;;
69301;SDS011;56689;47.842;8.974;2024-03-17T10:37:10;5.72;;;2.55;;
69301;SDS011;56689;47.842;8.974;2024-03-17T10:39:40;5.07;;;2.55;;
69301;SDS011;56689;47.842;8.974;2024-03-17T10:42:09;5.03;;;2.40;;
69301;SDS011;56689;47.842;8.974;2024-03-17T10:44:39;5.88;;;2.47;;
69301;SDS011;56689;47.842;8.974;2024-03-17T10:47:15;6.82;;;3.60;;
69301;SDS011;56689;47.842;8.974;2024-03-17T10:49:46;5.72;;;2.90;;
69301;SDS011;56689;47.842;8.974;2024-03-17T10:52:16;6.30;;;2.78;;
69301;SDS011;56689;47.842;8.974;2024-03-17T10:54:50;6.40;;;2.70;;
69301;SDS011;56689;47.842;8.974;2024-03-17T11:00:02;5.57;;;2.28;;
69301;SDS011;56689;47.842;8.974;2024-03-17T11:02:33;4.43;;;2.25;;
69301;SDS011;56689;47.842;8.974;2024-03-17T11:05:05;5.05;;;2.58;;
69301;SDS011;56689;47.842;8.974;2024-03-17T11:07:40;5.00;;;2.17;;
69301;SDS011;56689;47.842;8.974;2024-03-17T11:10:11;4.25;;;2.17;;
69301;SDS011;56689;47.842;8.974;2024-03-17T11:12:57;5.10;;;2.50;;
69301;SDS011;56689;47.842;8.974;2024-03-17T11:20:38;5.53;;;2.80;;
